createdAt,value
2018-06-21T00:00:30.771Z,100421.85
2018-06-21T00:02:59.159Z,100418.83
2018-06-21T00:05:27.442Z,100417.02
2018-06-21T00:07:55.669Z,100414.59
2018-06-21T00:10:23.704Z,100414.96
2018-06-21T00:12:51.781Z,100412.73
2018-06-21T00:15:20.040Z,100410.09
2018-06-21T00:17:48.072Z,100398.67
2018-06-21T00:20:16.409Z,100405.84
2018-06-21T00:22:44.660Z,100402.44
2018-06-21T00:25:12.951Z,100400.80
2018-06-21T00:27:41.343Z,100396.44
2018-06-21T00:30:09.732Z,100397.83
2018-06-21T00:32:38.141Z,100393.44
2018-06-21T00:35:06.535Z,100396.03
2018-06-21T00:37:35.215Z,100389.47
2018-06-21T00:40:04.335Z,100390.67
2018-06-21T00:42:33.100Z,100391.27
2018-06-21T00:45:01.953Z,100381.11
2018-06-21T00:47:30.327Z,100384.73
2018-06-21T00:49:58.515Z,100382.97
2018-06-21T00:52:26.603Z,100385.57
2018-06-21T00:54:54.656Z,100379.61
2018-06-21T00:57:22.704Z,100370.67
2018-06-21T00:59:50.764Z,100366.74
2018-06-21T01:02:18.817Z,100369.41
2018-06-21T01:04:46.843Z,100366.03
2018-06-21T01:07:14.873Z,100359.07
2018-06-21T01:09:42.916Z,100365.07
2018-06-21T01:12:10.972Z,100351.74
2018-06-21T01:14:39.008Z,100310.42
2018-06-21T01:17:07.049Z,100355.37
2018-06-21T01:19:35.103Z,100353.77
2018-06-21T01:22:03.138Z,100346.38
2018-06-21T01:24:31.244Z,100346.77
2018-06-21T01:26:59.304Z,100343.41
2018-06-21T01:29:27.367Z,100335.81
2018-06-21T01:31:55.475Z,100328.45
2018-06-21T01:34:23.554Z,100319.69
2018-06-21T01:36:51.619Z,100315.50
2018-06-21T01:39:19.687Z,100310.27
2018-06-21T01:41:48.008Z,100310.47
2018-06-21T01:44:16.053Z,100300.45
2018-06-21T01:46:44.091Z,100303.84
2018-06-21T01:49:12.165Z,100296.48
2018-06-21T01:51:40.345Z,100298.05
2018-06-21T01:54:08.643Z,100295.69
2018-06-21T01:56:36.974Z,100303.28
2018-06-21T01:59:05.627Z,100288.30
2018-06-21T02:01:33.961Z,100292.35
2018-06-21T02:04:02.333Z,100292.58
2018-06-21T02:06:30.428Z,100287.45
2018-06-21T02:08:58.487Z,100285.48
2018-06-21T02:11:26.567Z,100290.67
2018-06-21T02:13:54.615Z,100283.72
2018-06-21T02:16:22.696Z,100283.14
2018-06-21T02:18:50.759Z,100279.78
2018-06-21T02:21:18.927Z,100283.44
2018-06-21T02:23:46.980Z,100288.25
2018-06-21T02:26:15.080Z,100286.09
2018-06-21T02:28:43.208Z,100285.72
2018-06-21T02:31:11.483Z,100281.75
2018-06-21T02:33:39.924Z,100274.59
2018-06-21T02:36:08.367Z,100272.45
2018-06-21T02:38:36.723Z,100267.48
2018-06-21T02:41:05.200Z,100259.92
2018-06-21T02:43:33.410Z,100255.16
2018-06-21T02:46:02.011Z,100249.80
2018-06-21T02:48:30.112Z,100255.61
2018-06-21T02:50:58.169Z,100254.21
2018-06-21T02:53:26.260Z,100251.02
2018-06-21T02:55:54.302Z,100251.22
2018-06-21T02:58:22.347Z,100247.05
2018-06-21T03:00:50.388Z,100249.84
2018-06-21T03:03:18.447Z,100248.45
2018-06-21T03:05:46.488Z,100251.09
2018-06-21T03:08:14.664Z,100252.29
2018-06-21T03:10:42.691Z,100259.10
2018-06-21T03:13:10.731Z,100249.72
2018-06-21T03:15:38.786Z,100236.80
2018-06-21T03:18:06.843Z,100237.97
2018-06-21T03:20:34.883Z,100244.13
2018-06-21T03:23:02.955Z,100236.92
2018-06-21T03:25:31.032Z,100232.94
2018-06-21T03:27:59.272Z,100221.73
2018-06-21T03:30:27.388Z,100218.52
2018-06-21T03:32:55.429Z,100212.10
2018-06-21T03:35:23.482Z,100213.10
2018-06-21T03:37:51.551Z,100211.02
2018-06-21T03:40:19.614Z,100209.56
2018-06-21T03:42:47.671Z,100212.10
2018-06-21T03:45:15.735Z,100209.81
2018-06-21T03:47:43.824Z,100197.97
2018-06-21T03:50:11.879Z,100196.94
2018-06-21T03:52:39.917Z,100193.91
2018-06-21T03:55:07.975Z,100194.23
2018-06-21T03:57:36.003Z,100186.61
2018-06-21T04:00:04.075Z,100177.19
2018-06-21T04:02:32.107Z,100173.23
2018-06-21T04:05:00.194Z,100162.64
2018-06-21T04:07:28.236Z,100162.81
2018-06-21T04:09:56.288Z,100161.54
2018-06-21T04:12:24.331Z,100155.50
2018-06-21T04:14:52.403Z,100149.44
2018-06-21T04:17:20.436Z,100156.63
2018-06-21T04:19:48.788Z,100155.59
2018-06-21T04:22:16.847Z,100161.73
2018-06-21T04:24:44.895Z,100171.12
2018-06-21T04:27:13.018Z,100165.74
2018-06-21T04:29:41.064Z,100162.97
2018-06-21T04:32:09.220Z,100160.77
2018-06-21T04:34:37.269Z,100153.21
2018-06-21T04:37:05.344Z,100148.47
2018-06-21T04:39:33.388Z,100145.61
2018-06-21T04:42:01.444Z,100141.77
2018-06-21T04:44:29.480Z,100141.47
2018-06-21T04:46:57.535Z,100137.66
2018-06-21T04:49:25.574Z,100133.20
2018-06-21T04:51:53.690Z,100140.73
2018-06-21T04:54:21.734Z,100129.53
2018-06-21T04:56:49.992Z,100122.97
2018-06-21T04:59:18.026Z,100119.60
2018-06-21T05:01:46.091Z,100113.89
2018-06-21T05:04:14.207Z,100121.87
2018-06-21T05:06:42.259Z,100112.59
2018-06-21T05:09:11.908Z,100115.18
2018-06-21T05:11:39.960Z,100113.12
2018-06-21T05:14:08.487Z,100112.56
2018-06-21T05:16:36.515Z,100113.76
2018-06-21T05:19:04.568Z,100119.44
2018-06-21T05:21:32.929Z,100122.66
2018-06-21T05:24:00.980Z,100130.05
2018-06-21T05:26:29.106Z,100134.29
2018-06-21T05:28:57.202Z,100125.40
2018-06-21T05:31:25.226Z,100115.30
2018-06-21T05:33:53.271Z,100112.96
2018-06-21T05:36:21.451Z,100109.30
2018-06-21T05:38:49.535Z,100111.68
2018-06-21T05:41:17.574Z,100100.47
2018-06-21T05:43:45.639Z,100097.48
2018-06-21T05:46:13.668Z,100089.87
2018-06-21T05:48:41.707Z,100096.52
2018-06-21T05:51:09.739Z,100087.57
2018-06-21T05:53:37.755Z,100090.43
2018-06-21T05:56:05.843Z,100076.38
2018-06-21T05:58:33.872Z,100084.16
2018-06-21T06:01:01.930Z,100076.72
2018-06-21T06:03:30.052Z,100075.88
2018-06-21T06:05:58.096Z,100084.07
2018-06-21T06:08:26.188Z,100077.97
2018-06-21T06:10:54.320Z,100087.50
2018-06-21T06:13:22.354Z,100087.23
2018-06-21T06:15:50.412Z,100090.64
2018-06-21T06:18:18.439Z,100082.67
2018-06-21T06:20:46.456Z,100093.38
2018-06-21T06:23:14.508Z,100088.37
2018-06-21T06:25:42.732Z,100093.75
2018-06-21T06:28:10.756Z,100098.41
2018-06-21T06:30:38.794Z,100103.52
2018-06-21T06:33:06.883Z,100113.44
2018-06-21T06:35:34.875Z,100118.76
2018-06-21T06:38:03.140Z,100120.43
2018-06-21T06:40:31.234Z,100115.50
2018-06-21T06:42:59.346Z,100111.91
2018-06-21T06:45:27.432Z,100113.16
2018-06-21T06:47:55.451Z,100119.35
2018-06-21T06:50:23.715Z,100121.61
2018-06-21T06:52:51.759Z,100121.85
2018-06-21T06:55:19.803Z,100121.53
2018-06-21T06:57:47.859Z,100119.45
2018-06-21T07:00:15.916Z,100131.15
2018-06-21T07:02:44.043Z,100131.80
2018-06-21T07:05:12.071Z,100132.63
2018-06-21T07:07:40.115Z,100158.34
2018-06-21T07:10:08.180Z,100162.31
2018-06-21T07:12:36.213Z,100171.11
2018-06-21T07:15:04.244Z,100187.61
2018-06-21T07:17:32.308Z,100180.84
2018-06-21T07:20:00.336Z,100188.80
2018-06-21T07:22:28.511Z,100187.20
2018-06-21T07:24:56.539Z,100191.39
2018-06-21T07:27:24.631Z,100195.95
2018-06-21T07:29:52.706Z,100207.27
2018-06-21T07:32:20.675Z,100197.91
2018-06-21T07:34:48.716Z,100203.50
2018-06-21T07:37:16.757Z,100210.25
2018-06-21T07:39:44.848Z,100223.10
2018-06-21T07:42:12.891Z,100225.22
2018-06-21T07:44:40.924Z,100220.55
2018-06-21T07:47:08.971Z,100230.23
2018-06-21T07:49:37.020Z,100231.25
2018-06-21T07:52:05.048Z,100235.55
2018-06-21T07:54:33.222Z,100234.52
2018-06-21T07:57:01.255Z,100236.09
2018-06-21T07:59:29.320Z,100244.66
2018-06-21T08:01:57.460Z,100245.98
2018-06-21T08:04:25.553Z,100255.42
2018-06-21T08:06:53.588Z,100250.00
2018-06-21T08:09:21.636Z,100257.36
2018-06-21T08:11:49.703Z,100258.97
2018-06-21T08:14:17.811Z,100265.69
2018-06-21T08:16:45.861Z,100260.72
2018-06-21T08:19:14.012Z,100265.78
2018-06-21T08:21:42.047Z,100272.88
2018-06-21T08:24:10.357Z,100270.76
2018-06-21T08:26:38.479Z,100253.23
2018-06-21T08:29:06.560Z,100257.73
2018-06-21T08:31:34.629Z,100262.73
2018-06-21T08:34:02.818Z,100271.73
2018-06-21T08:36:30.936Z,100280.28
2018-06-21T08:38:59.022Z,100269.18
2018-06-21T08:41:31.777Z,100281.52
2018-06-21T08:43:59.807Z,100285.29
2018-06-21T08:46:27.976Z,100286.20
2018-06-21T08:48:56.129Z,100284.95
2018-06-21T08:51:24.175Z,100278.52
2018-06-21T08:53:52.231Z,100294.09
2018-06-21T08:56:20.272Z,100300.38
2018-06-21T08:58:48.595Z,100296.48
2018-06-21T09:01:16.651Z,100297.29
2018-06-21T09:03:44.706Z,100307.47
2018-06-21T09:06:12.816Z,100304.19
2018-06-21T09:08:40.899Z,100306.93
2018-06-21T09:11:08.995Z,100305.17
2018-06-21T09:13:38.011Z,100300.35
2018-06-21T09:16:07.811Z,100302.55
2018-06-21T09:18:35.879Z,100300.12
2018-06-21T09:21:03.970Z,100296.95
2018-06-21T09:23:32.079Z,100304.25
2018-06-21T09:26:00.112Z,100322.37
2018-06-21T09:28:28.186Z,100322.05
2018-06-21T09:30:56.290Z,100327.61
2018-06-21T09:33:24.350Z,100327.00
2018-06-21T09:35:52.464Z,100337.71
2018-06-21T09:38:26.012Z,100336.36
2018-06-21T09:40:59.387Z,100326.38
2018-06-21T09:43:32.745Z,100328.28
2018-06-21T09:46:06.151Z,100329.11
2018-06-21T09:48:34.706Z,100320.44
2018-06-21T09:51:02.930Z,100321.76
2018-06-21T09:53:31.121Z,100328.71
2018-06-21T09:56:00.343Z,100319.25
2018-06-21T09:58:28.704Z,100336.91
2018-06-21T10:01:01.699Z,100340.62
2018-06-21T10:03:29.752Z,100349.86
2018-06-21T10:05:58.095Z,100357.45
2018-06-21T10:08:26.263Z,100340.69
2018-06-21T10:10:54.295Z,100351.38
2018-06-21T10:13:22.539Z,100366.33
2018-06-21T10:15:50.590Z,100380.70
2018-06-21T10:18:18.596Z,100360.05
2018-06-21T10:20:46.643Z,100389.69
2018-06-21T10:23:15.001Z,100398.33
2018-06-21T10:25:43.045Z,100393.95
2018-06-21T10:28:11.155Z,100399.19
2018-06-21T10:30:39.702Z,100407.14
2018-06-21T10:33:07.831Z,100399.67
2018-06-21T10:35:36.034Z,100405.24
2018-06-21T10:38:04.504Z,100414.44
2018-06-21T10:40:33.083Z,100396.34
2018-06-21T10:43:01.342Z,100404.72
2018-06-21T10:45:29.395Z,100401.53
2018-06-21T10:47:58.292Z,100417.25
2018-06-21T10:50:26.396Z,100428.41
2018-06-21T10:52:54.443Z,100409.69
2018-06-21T10:55:22.546Z,100397.34
2018-06-21T10:57:50.595Z,100419.66
2018-06-21T11:00:18.677Z,100433.37
2018-06-21T11:02:46.776Z,100441.92
2018-06-21T11:05:14.828Z,100427.54
2018-06-21T11:07:45.910Z,100434.73
2018-06-21T11:10:13.991Z,100409.23
2018-06-21T11:12:42.047Z,100423.02
2018-06-21T11:15:10.080Z,100442.75
2018-06-21T11:17:38.120Z,100430.55
2018-06-21T11:20:06.391Z,100451.89
2018-06-21T11:22:34.463Z,100436.55
2018-06-21T11:25:02.532Z,100453.46
2018-06-21T11:27:30.585Z,100455.98
2018-06-21T11:29:58.623Z,100441.27
2018-06-21T11:32:26.679Z,100460.64
2018-06-21T11:34:54.719Z,100433.79
2018-06-21T11:37:22.779Z,100479.03
2018-06-21T11:39:50.831Z,100497.94
2018-06-21T11:42:18.916Z,100493.75
2018-06-21T11:44:46.967Z,100466.65
2018-06-21T11:47:15.119Z,100487.97
2018-06-21T11:49:43.376Z,100492.13
2018-06-21T11:52:11.719Z,100475.52
2018-06-21T11:54:40.163Z,100495.41
2018-06-21T11:57:08.489Z,100492.88
2018-06-21T11:59:36.977Z,100482.47
2018-06-21T12:02:05.784Z,100500.77
2018-06-21T12:04:34.299Z,100498.01
2018-06-21T12:07:03.435Z,100499.58
2018-06-21T12:09:31.579Z,100509.14
2018-06-21T12:11:59.644Z,100496.41
2018-06-21T12:14:27.700Z,100527.34
2018-06-21T12:16:55.776Z,100514.03
2018-06-21T12:19:23.847Z,100531.13
2018-06-21T12:21:51.900Z,100525.37
2018-06-21T12:24:19.971Z,100534.33
2018-06-21T12:26:48.059Z,100528.87
2018-06-21T12:29:16.189Z,100539.48
2018-06-21T12:31:44.415Z,100524.73
2018-06-21T12:34:12.631Z,100529.98
2018-06-21T12:36:40.925Z,100549.10
2018-06-21T12:39:09.588Z,100550.83
2018-06-21T12:41:38.236Z,100544.66
2018-06-21T12:44:07.040Z,100547.39
2018-06-21T12:46:35.819Z,100548.59
2018-06-21T12:49:04.050Z,100541.02
2018-06-21T12:51:32.331Z,100557.00
2018-06-21T12:54:00.406Z,100558.08
2018-06-21T12:56:28.487Z,100566.23
2018-06-21T12:58:56.526Z,100562.26
2018-06-21T13:01:24.607Z,100558.67
2018-06-21T13:03:52.646Z,100565.59
2018-06-21T13:06:20.707Z,100578.52
2018-06-21T13:09:00.228Z,100563.84
2018-06-21T13:11:39.727Z,100569.93
2018-06-21T13:14:19.489Z,100554.14
2018-06-21T13:16:47.535Z,100584.64
2018-06-21T13:19:15.579Z,100577.62
2018-06-21T13:21:43.624Z,100582.57
2018-06-21T13:24:11.673Z,100583.78
2018-06-21T13:26:39.703Z,100593.76
2018-06-21T13:29:07.766Z,100610.48
2018-06-21T13:31:35.941Z,100582.33
2018-06-21T13:34:04.101Z,100608.80
2018-06-21T13:36:32.627Z,100602.99
2018-06-21T13:39:01.494Z,100618.52
2018-06-21T13:41:29.595Z,100615.73
2018-06-21T13:43:57.634Z,100617.28
2018-06-21T13:46:25.691Z,100631.08
2018-06-21T13:48:53.864Z,100628.30
2018-06-21T13:51:21.920Z,100614.55
2018-06-21T13:53:49.943Z,100635.30
2018-06-21T13:56:18.004Z,100637.67
2018-06-21T13:58:46.087Z,100638.88
2018-06-21T14:01:14.211Z,100644.44
2018-06-21T14:03:42.402Z,100649.25
2018-06-21T14:06:10.625Z,100634.09
2018-06-21T14:08:38.980Z,100651.23
2018-06-21T14:11:07.036Z,100645.83
2018-06-21T14:13:35.417Z,100658.41
2018-06-21T14:16:03.770Z,100671.55
2018-06-21T14:18:32.558Z,100667.98
2018-06-21T14:21:00.852Z,100660.98
2018-06-21T14:23:29.152Z,100672.78
2018-06-21T14:25:57.231Z,100675.95
2018-06-21T14:28:25.240Z,100671.95
2018-06-21T14:30:53.256Z,100661.38
2018-06-21T14:33:21.292Z,100674.13
2018-06-21T14:35:49.310Z,100678.88
2018-06-21T14:38:17.376Z,100687.89
2018-06-21T14:40:45.398Z,100679.08
2018-06-21T14:43:13.440Z,100657.95
2018-06-21T14:45:41.475Z,100692.47
2018-06-21T14:48:09.564Z,100683.31
2018-06-21T14:50:37.543Z,100691.31
2018-06-21T14:53:05.687Z,100687.53
2018-06-21T14:55:33.951Z,100687.53
2018-06-21T14:58:02.236Z,100693.31
2018-06-21T15:00:30.266Z,100693.31
2018-06-21T15:02:58.338Z,100699.13
2018-06-21T15:05:26.440Z,100701.37
2018-06-21T15:07:54.456Z,100713.61
2018-06-21T15:10:22.568Z,100708.20
2018-06-21T15:12:50.604Z,100708.37
2018-06-21T15:15:18.692Z,100721.73
2018-06-21T15:17:46.753Z,100708.48
2018-06-21T15:20:14.808Z,100715.47
2018-06-21T15:22:42.835Z,100724.25
2018-06-21T15:25:10.875Z,100726.48
2018-06-21T15:27:38.903Z,100717.66
2018-06-21T15:30:06.936Z,100720.30
2018-06-21T15:32:34.982Z,100718.02
2018-06-21T15:35:03.054Z,100721.38
2018-06-21T15:37:31.100Z,100737.39
2018-06-21T15:39:59.211Z,100740.96
2018-06-21T15:42:27.249Z,100753.48
2018-06-21T15:44:55.297Z,100743.50
2018-06-21T15:47:23.376Z,100759.41
2018-06-21T15:49:51.413Z,100774.92
2018-06-21T15:52:19.671Z,100795.77
2018-06-21T15:54:49.414Z,100803.57
2018-06-21T15:57:19.623Z,100808.72
2018-06-21T15:59:48.760Z,100810.58
2018-06-21T16:02:17.739Z,100800.59
2018-06-21T16:04:46.803Z,100803.16
2018-06-21T16:07:15.744Z,100816.75
2018-06-21T16:09:44.758Z,100817.48
2018-06-21T16:12:14.311Z,100814.53
2018-06-21T16:14:43.403Z,100815.95
2018-06-21T16:17:11.632Z,100817.02
2018-06-21T16:19:39.900Z,100815.68
2018-06-21T16:22:08.216Z,100819.66
2018-06-21T16:24:36.490Z,100825.83
2018-06-21T16:27:05.100Z,100828.91
2018-06-21T16:29:34.539Z,100821.49
2018-06-21T16:32:02.759Z,100816.37
2018-06-21T16:34:31.096Z,100827.36
2018-06-21T16:36:59.227Z,100825.70
2018-06-21T16:39:27.375Z,100835.50
2018-06-21T16:41:55.447Z,100828.27
2018-06-21T16:44:23.523Z,100828.20
2018-06-21T16:46:51.627Z,100835.78
2018-06-21T16:49:19.710Z,100831.14
2018-06-21T16:51:47.760Z,100828.93
2018-06-21T16:54:15.802Z,100828.95
2018-06-21T16:56:44.071Z,100830.13
2018-06-21T16:59:12.136Z,100831.99
2018-06-21T17:01:40.265Z,100836.91
2018-06-21T17:04:08.281Z,100845.88
2018-06-21T17:06:36.323Z,100803.55
2018-06-21T17:09:06.252Z,100844.39
2018-06-21T17:11:34.309Z,100842.87
2018-06-21T17:14:02.327Z,100843.09
2018-06-21T17:16:30.403Z,100807.45
2018-06-21T17:18:58.446Z,100842.71
2018-06-21T17:21:26.485Z,100841.58
2018-06-21T17:23:55.351Z,100843.72
2018-06-21T17:26:23.493Z,100844.98
2018-06-21T17:28:51.534Z,100844.17
2018-06-21T17:31:19.571Z,100850.08
2018-06-21T17:33:47.763Z,100883.18
2018-06-21T17:36:15.891Z,100903.70
2018-06-21T17:38:44.419Z,100898.96
2018-06-21T17:41:13.267Z,100875.00
2018-06-21T17:43:41.566Z,100880.40
2018-06-21T17:46:10.008Z,100881.50
2018-06-21T17:48:38.318Z,100881.73
2018-06-21T17:51:06.384Z,100878.58
2018-06-21T17:53:34.423Z,100883.55
2018-06-21T17:56:02.479Z,100881.50
2018-06-21T17:58:30.630Z,100885.56
2018-06-21T18:00:58.691Z,100886.75
2018-06-21T18:03:26.732Z,100885.70
2018-06-21T18:05:54.798Z,100895.22
2018-06-21T18:08:22.852Z,100898.31
2018-06-21T18:10:50.979Z,100902.24
2018-06-21T18:13:18.972Z,100910.20
2018-06-21T18:15:47.127Z,100910.41
2018-06-21T18:18:15.172Z,100902.15
2018-06-21T18:20:43.624Z,100898.28
2018-06-21T18:23:11.683Z,100907.48
2018-06-21T18:25:40.703Z,100911.18
2018-06-21T18:28:09.078Z,100908.92
2018-06-21T18:30:37.143Z,100910.17
2018-06-21T18:33:05.235Z,100910.51
2018-06-21T18:35:33.363Z,100909.41
2018-06-21T18:38:01.351Z,100915.66
2018-06-21T18:40:29.851Z,100914.27
2018-06-21T18:42:57.939Z,100915.22
2018-06-21T18:45:25.992Z,100916.89
2018-06-21T18:47:54.599Z,100921.75
2018-06-21T18:50:24.517Z,100924.72
2018-06-21T18:52:53.291Z,100918.03
2018-06-21T18:55:21.988Z,100918.70
2018-06-21T18:57:50.057Z,100913.94
2018-06-21T19:00:18.198Z,100923.12
2018-06-21T19:02:47.183Z,100923.44
2018-06-21T19:05:15.599Z,100925.27
2018-06-21T19:07:43.647Z,100924.55
2018-06-21T19:10:17.150Z,100929.42
2018-06-21T19:12:45.235Z,100927.55
2018-06-21T19:15:13.304Z,100926.88
2018-06-21T19:17:41.382Z,100922.26
2018-06-21T19:20:09.903Z,100818.98
2018-06-21T19:22:37.967Z,100936.09
2018-06-21T19:25:06.055Z,100939.15
2018-06-21T19:27:37.151Z,100947.39
2018-06-21T19:30:05.595Z,100950.40
2018-06-21T19:32:33.671Z,100939.45
2018-06-21T19:35:01.736Z,100946.62
2018-06-21T19:37:29.782Z,100950.44
2018-06-21T19:39:57.855Z,100951.82
2018-06-21T19:42:25.920Z,100953.48
2018-06-21T19:44:54.052Z,100958.30
2018-06-21T19:47:22.175Z,100962.48
2018-06-21T19:49:50.367Z,100964.48
2018-06-21T19:52:18.443Z,100966.00
2018-06-21T19:54:46.521Z,100972.47
2018-06-21T19:57:14.601Z,100973.18
2018-06-21T19:59:42.931Z,100981.92
2018-06-21T20:02:11.517Z,100934.91
2018-06-21T20:04:39.620Z,100993.50
2018-06-21T20:07:08.686Z,100993.28
2018-06-21T20:09:37.741Z,100991.00
2018-06-21T20:12:05.987Z,100996.81
2018-06-21T20:14:34.068Z,100993.70
2018-06-21T20:17:02.167Z,100992.78
2018-06-21T20:19:34.471Z,101002.14
2018-06-21T20:22:02.524Z,101001.80
2018-06-21T20:24:30.583Z,100998.58
2018-06-21T20:26:58.671Z,101009.77
2018-06-21T20:29:26.843Z,100998.92
2018-06-21T20:31:54.931Z,100996.98
2018-06-21T20:34:23.789Z,101004.02
2018-06-21T20:36:51.919Z,101006.34
2018-06-21T20:39:19.987Z,101008.41
2018-06-21T20:41:48.061Z,101004.03
2018-06-21T20:44:16.185Z,100998.86
2018-06-21T20:46:44.352Z,101003.01
2018-06-21T20:49:12.856Z,101007.16
2018-06-21T20:51:41.049Z,101002.89
2018-06-21T20:54:09.220Z,101003.34
2018-06-21T20:56:37.533Z,101003.70
2018-06-21T20:59:06.439Z,101002.78
2018-06-21T21:01:34.777Z,101002.45
2018-06-21T21:04:03.109Z,100997.73
2018-06-21T21:06:31.432Z,100998.30
2018-06-21T21:08:59.700Z,100997.94
2018-06-21T21:11:27.807Z,101006.48
2018-06-21T21:13:55.886Z,101002.09
2018-06-21T21:16:23.968Z,101008.43
2018-06-21T21:18:52.070Z,101009.57
2018-06-21T21:21:20.103Z,101016.27
2018-06-21T21:23:48.349Z,101017.17
2018-06-21T21:26:16.393Z,101017.86
2018-06-21T21:28:44.526Z,101016.48
2018-06-21T21:31:12.599Z,101023.39
2018-06-21T21:33:40.743Z,101022.12
2018-06-21T21:36:08.803Z,101024.08
2018-06-21T21:38:36.955Z,101022.81
2018-06-21T21:41:04.999Z,101015.81
2018-06-21T21:43:33.861Z,101023.98
2018-06-21T21:46:01.931Z,101012.12
2018-06-21T21:48:29.993Z,101011.06
2018-06-21T21:50:58.038Z,101012.80
2018-06-21T21:53:26.092Z,101004.40
2018-06-21T21:55:54.131Z,101003.58
2018-06-21T21:58:22.248Z,100995.30
2018-06-21T22:00:52.506Z,101005.32
2018-06-21T22:03:20.584Z,101012.91
2018-06-21T22:05:48.634Z,101008.76
2018-06-21T22:08:16.687Z,101008.31
2018-06-21T22:10:45.659Z,101007.50
2018-06-21T22:13:14.152Z,101012.66
2018-06-21T22:15:42.777Z,101004.95
2018-06-21T22:18:10.998Z,101010.47
2018-06-21T22:20:39.460Z,101001.41
2018-06-21T22:23:07.608Z,101005.43
2018-06-21T22:25:35.736Z,100995.98
2018-06-21T22:28:03.899Z,100996.91
2018-06-21T22:30:31.946Z,100989.55
2018-06-21T22:33:00.556Z,100998.52
2018-06-21T22:35:28.924Z,100998.28
2018-06-21T22:37:56.979Z,100988.86
2018-06-21T22:40:25.027Z,100985.86
2018-06-21T22:42:53.063Z,100982.65
2018-06-21T22:45:21.088Z,100980.91
2018-06-21T22:47:49.127Z,100989.08
2018-06-21T22:50:17.151Z,100986.56
2018-06-21T22:52:45.221Z,100985.51
2018-06-21T22:55:13.234Z,100979.90
2018-06-21T22:57:41.282Z,100979.66
2018-06-21T23:00:09.313Z,100971.61
2018-06-21T23:02:37.352Z,100972.51
2018-06-21T23:05:05.413Z,100966.78
2018-06-21T23:07:33.412Z,100971.82
2018-06-21T23:10:01.434Z,100974.38
2018-06-21T23:12:29.623Z,100975.39
2018-06-21T23:14:57.644Z,100970.31
2018-06-21T23:17:25.672Z,100976.66
2018-06-21T23:19:53.718Z,100971.70
2018-06-21T23:22:21.740Z,100973.89
2018-06-21T23:24:49.767Z,100965.84
2018-06-21T23:27:17.867Z,100975.39
2018-06-21T23:29:45.888Z,100973.44
2018-06-21T23:32:13.925Z,100974.94
2018-06-21T23:34:41.975Z,100967.92
2018-06-21T23:37:09.988Z,100965.60
2018-06-21T23:39:38.019Z,100964.82
2018-06-21T23:42:06.066Z,100968.96
2018-06-21T23:44:34.091Z,100960.55
2018-06-21T23:47:02.147Z,100954.32
2018-06-21T23:49:30.183Z,100959.48
2018-06-21T23:51:58.187Z,100969.50
2018-06-21T23:54:26.513Z,100962.14
2018-06-21T23:56:54.560Z,100959.59
2018-06-21T23:59:22.589Z,100956.94
